createdAt,value
2017-05-29T00:01:16.678Z,0.00
2017-05-29T00:02:17.243Z,0.00
2017-05-29T00:03:17.809Z,0.00
2017-05-29T00:04:18.362Z,0.00
2017-05-29T00:05:18.928Z,0.00
2017-05-29T00:06:19.490Z,0.00
2017-05-29T00:07:20.051Z,0.00
2017-05-29T00:08:20.602Z,0.00
2017-05-29T00:09:21.179Z,0.00
2017-05-29T00:10:21.730Z,0.00
2017-05-29T00:11:22.299Z,0.00
2017-05-29T00:12:22.851Z,0.00
2017-05-29T00:13:23.404Z,0.00
2017-05-29T00:14:23.958Z,0.00
2017-05-29T00:15:24.525Z,0.00
2017-05-29T00:16:25.091Z,0.00
2017-05-29T00:17:25.659Z,0.00
2017-05-29T00:18:26.209Z,0.00
2017-05-29T00:19:26.770Z,0.00
2017-05-29T00:20:27.332Z,0.00
2017-05-29T00:21:27.890Z,0.00
2017-05-29T00:22:28.441Z,0.00
2017-05-29T00:23:28.994Z,0.00
2017-05-29T00:24:29.553Z,0.00
2017-05-29T00:25:30.115Z,0.00
2017-05-29T00:26:30.722Z,0.00
2017-05-29T00:27:31.285Z,0.00
2017-05-29T00:28:31.847Z,0.00
2017-05-29T00:29:32.400Z,0.00
2017-05-29T00:30:32.968Z,0.00
2017-05-29T00:31:33.537Z,0.00
2017-05-29T00:32:34.095Z,0.00
2017-05-29T00:33:34.652Z,0.00
2017-05-29T00:34:35.213Z,0.00
2017-05-29T00:35:35.780Z,0.00
2017-05-29T00:36:36.346Z,0.00
2017-05-29T00:37:36.898Z,0.00
2017-05-29T00:38:37.463Z,0.00
2017-05-29T00:39:38.033Z,0.00
2017-05-29T00:40:38.597Z,0.00
2017-05-29T00:41:39.153Z,0.00
2017-05-29T00:42:39.717Z,0.00
2017-05-29T00:43:40.273Z,0.00
2017-05-29T00:44:40.837Z,0.00
2017-05-29T00:45:41.398Z,0.00
2017-05-29T00:46:41.962Z,0.00
2017-05-29T00:47:42.527Z,0.00
2017-05-29T00:48:43.091Z,0.00
2017-05-29T00:49:43.644Z,0.00
2017-05-29T00:50:44.197Z,0.00
2017-05-29T00:51:44.757Z,0.00
2017-05-29T00:52:45.322Z,0.00
2017-05-29T00:53:45.893Z,0.00
2017-05-29T00:54:46.447Z,0.00
2017-05-29T00:55:47.001Z,0.00
2017-05-29T00:56:47.555Z,0.00
2017-05-29T00:57:48.109Z,0.00
2017-05-29T00:58:48.667Z,0.00
2017-05-29T00:59:49.232Z,0.00
2017-05-29T01:00:49.799Z,0.00
2017-05-29T01:01:50.368Z,0.00
2017-05-29T01:02:50.938Z,0.00
2017-05-29T01:03:51.504Z,0.00
2017-05-29T01:04:52.060Z,0.00
2017-05-29T01:05:52.631Z,0.00
2017-05-29T01:06:53.199Z,0.00
2017-05-29T01:07:53.763Z,0.00
2017-05-29T01:08:54.334Z,0.00
2017-05-29T01:09:54.885Z,0.00
2017-05-29T01:10:55.450Z,0.00
2017-05-29T01:11:56.020Z,0.00
2017-05-29T01:12:56.587Z,0.00
2017-05-29T01:13:57.144Z,0.00
2017-05-29T01:14:57.708Z,0.00
2017-05-29T01:15:58.260Z,0.00
2017-05-29T01:16:58.814Z,0.00
2017-05-29T01:17:59.379Z,0.00
2017-05-29T01:18:59.935Z,0.00
2017-05-29T01:20:00.501Z,0.00
2017-05-29T01:21:01.057Z,0.00
2017-05-29T01:22:01.604Z,0.00
2017-05-29T01:23:02.164Z,0.00
2017-05-29T01:24:02.733Z,0.00
2017-05-29T01:25:03.285Z,0.00
2017-05-29T01:26:03.839Z,0.00
2017-05-29T01:27:04.403Z,0.00
2017-05-29T01:28:04.958Z,0.00
2017-05-29T01:29:05.510Z,0.00
2017-05-29T01:30:06.072Z,0.00
2017-05-29T01:31:06.630Z,0.00
2017-05-29T01:32:07.198Z,0.00
2017-05-29T01:33:07.764Z,0.00
2017-05-29T01:34:08.332Z,0.00
2017-05-29T01:35:08.879Z,0.00
2017-05-29T01:36:09.443Z,0.00
2017-05-29T01:37:10.002Z,0.00
2017-05-29T01:38:10.566Z,0.00
2017-05-29T01:39:11.138Z,0.00
2017-05-29T01:40:11.687Z,0.00
2017-05-29T01:41:12.243Z,0.00
2017-05-29T01:42:12.813Z,0.00
2017-05-29T01:43:13.382Z,0.00
2017-05-29T01:44:13.936Z,0.00
2017-05-29T01:45:14.497Z,0.00
2017-05-29T01:46:15.061Z,0.00
2017-05-29T01:47:15.609Z,0.00
2017-05-29T01:48:16.171Z,0.00
2017-05-29T01:49:16.775Z,0.00
2017-05-29T01:50:17.327Z,0.00
2017-05-29T01:51:17.889Z,0.00
2017-05-29T01:52:18.451Z,0.00
2017-05-29T01:53:19.015Z,0.00
2017-05-29T01:54:19.570Z,0.00
2017-05-29T01:55:20.136Z,0.00
2017-05-29T01:56:20.702Z,0.00
2017-05-29T01:57:21.273Z,0.00
2017-05-29T01:58:21.826Z,0.00
2017-05-29T01:59:22.391Z,0.00
2017-05-29T02:00:22.953Z,0.00
2017-05-29T02:01:23.519Z,0.00
2017-05-29T02:02:24.074Z,0.00
2017-05-29T02:03:24.653Z,0.00
2017-05-29T02:04:25.182Z,0.00
2017-05-29T02:05:25.747Z,0.00
2017-05-29T02:06:26.299Z,0.00
2017-05-29T02:07:26.867Z,0.00
2017-05-29T02:08:27.432Z,0.00
2017-05-29T02:09:27.981Z,0.00
2017-05-29T02:10:28.545Z,0.00
2017-05-29T02:11:29.109Z,0.00
2017-05-29T02:12:29.664Z,0.00
2017-05-29T02:13:30.231Z,0.00
2017-05-29T02:14:30.796Z,0.00
2017-05-29T02:15:31.345Z,0.00
2017-05-29T02:16:31.900Z,0.00
2017-05-29T02:17:32.465Z,0.00
2017-05-29T02:18:33.034Z,0.00
2017-05-29T02:19:33.602Z,0.00
2017-05-29T02:20:34.167Z,0.00
2017-05-29T02:21:34.723Z,0.00
2017-05-29T02:22:35.293Z,0.00
2017-05-29T02:23:35.860Z,0.00
2017-05-29T02:24:36.422Z,0.00
2017-05-29T02:25:36.977Z,0.00
2017-05-29T02:26:37.531Z,0.00
2017-05-29T02:27:38.086Z,0.00
2017-05-29T02:28:38.650Z,0.00
2017-05-29T02:29:39.204Z,0.00
2017-05-29T02:30:39.764Z,0.00
2017-05-29T02:31:40.327Z,0.00
2017-05-29T02:32:40.890Z,0.00
2017-05-29T02:33:41.456Z,0.00
2017-05-29T02:34:42.006Z,0.00
2017-05-29T02:35:42.611Z,0.00
2017-05-29T02:36:43.180Z,0.00
2017-05-29T02:37:43.731Z,0.00
2017-05-29T02:38:44.291Z,0.00
2017-05-29T02:39:44.853Z,0.00
2017-05-29T02:40:45.423Z,0.00
2017-05-29T02:41:45.998Z,0.00
2017-05-29T02:42:46.543Z,0.00
2017-05-29T02:43:47.109Z,0.00
2017-05-29T02:44:47.679Z,0.00
2017-05-29T02:45:48.229Z,0.00
2017-05-29T02:46:48.780Z,0.00
2017-05-29T02:47:49.334Z,0.00
2017-05-29T02:48:49.900Z,0.00
2017-05-29T02:49:50.454Z,0.00
2017-05-29T02:50:51.021Z,0.00
2017-05-29T02:51:51.576Z,0.00
2017-05-29T02:52:52.128Z,0.00
2017-05-29T02:53:52.687Z,0.00
2017-05-29T02:54:53.242Z,0.00
2017-05-29T02:55:53.809Z,0.00
2017-05-29T02:56:54.365Z,0.00
2017-05-29T02:57:54.929Z,0.00
2017-05-29T02:58:55.534Z,0.00
2017-05-29T02:59:56.104Z,0.00
2017-05-29T03:00:56.657Z,0.00
2017-05-29T03:01:57.225Z,0.00
2017-05-29T03:02:57.794Z,0.00
2017-05-29T03:03:58.364Z,0.00
2017-05-29T03:04:58.928Z,0.00
2017-05-29T03:05:59.494Z,0.00
2017-05-29T03:07:00.060Z,0.00
2017-05-29T03:08:00.610Z,0.00
2017-05-29T03:09:01.162Z,0.00
2017-05-29T03:10:01.724Z,0.00
2017-05-29T03:11:02.290Z,0.00
2017-05-29T03:12:02.907Z,0.00
2017-05-29T03:13:03.469Z,0.00
2017-05-29T03:14:04.022Z,0.00
2017-05-29T03:15:04.587Z,0.00
2017-05-29T03:16:05.153Z,0.00
2017-05-29T03:17:05.708Z,0.00
2017-05-29T03:18:06.268Z,0.00
2017-05-29T03:19:06.837Z,0.00
2017-05-29T03:20:07.403Z,0.00
2017-05-29T03:21:07.960Z,0.00
2017-05-29T03:22:08.513Z,0.00
2017-05-29T03:23:09.066Z,0.00
2017-05-29T03:24:09.631Z,0.00
2017-05-29T03:25:10.190Z,0.00
2017-05-29T03:26:10.740Z,0.00
2017-05-29T03:27:11.305Z,0.00
2017-05-29T03:28:11.859Z,0.00
2017-05-29T03:29:12.426Z,0.00
2017-05-29T03:30:12.995Z,0.00
2017-05-29T03:31:13.549Z,0.00
2017-05-29T03:32:14.107Z,0.00
2017-05-29T03:33:14.678Z,0.00
2017-05-29T03:34:15.246Z,0.00
2017-05-29T03:35:15.814Z,0.00
2017-05-29T03:36:16.384Z,0.00
2017-05-29T03:37:16.952Z,0.00
2017-05-29T03:38:17.504Z,0.00
2017-05-29T03:39:18.061Z,0.00
2017-05-29T03:40:18.634Z,0.00
2017-05-29T03:41:19.203Z,0.00
2017-05-29T03:42:19.760Z,0.00
2017-05-29T03:43:20.333Z,0.00
2017-05-29T03:44:20.889Z,0.00
2017-05-29T03:45:21.459Z,0.00
2017-05-29T03:46:22.019Z,0.00
2017-05-29T03:47:22.583Z,0.00
2017-05-29T03:48:23.188Z,0.00
2017-05-29T03:49:23.754Z,0.00
2017-05-29T03:50:24.318Z,0.00
2017-05-29T03:51:24.878Z,0.00
2017-05-29T03:52:25.433Z,0.00
2017-05-29T03:53:26.005Z,0.00
2017-05-29T03:54:26.573Z,0.00
2017-05-29T03:55:27.142Z,0.00
2017-05-29T03:56:27.715Z,0.00
2017-05-29T03:57:28.283Z,0.00
2017-05-29T03:58:28.836Z,0.00
2017-05-29T03:59:29.401Z,0.00
2017-05-29T04:00:29.967Z,0.00
2017-05-29T04:01:30.532Z,0.00
2017-05-29T04:02:31.088Z,0.00
2017-05-29T04:03:31.654Z,0.00
2017-05-29T04:04:32.220Z,0.00
2017-05-29T04:05:32.781Z,0.00
2017-05-29T04:06:33.352Z,0.00
2017-05-29T04:07:33.908Z,0.00
2017-05-29T04:08:34.467Z,0.00
2017-05-29T04:09:35.041Z,0.00
2017-05-29T04:10:35.609Z,0.00
2017-05-29T04:11:36.165Z,0.00
2017-05-29T12:14:56.921Z,1001.94
2017-05-29T12:15:57.557Z,1001.94
2017-05-29T12:16:58.196Z,1001.89
2017-05-29T12:17:58.836Z,1001.85
2017-05-29T12:18:59.474Z,1001.92
2017-05-29T12:20:00.097Z,1001.92
2017-05-29T12:21:00.728Z,1001.91
2017-05-29T12:22:01.364Z,1001.90
2017-05-29T12:23:02.004Z,1001.91
2017-05-29T12:24:02.625Z,1001.92
2017-05-29T12:25:03.261Z,1001.91
2017-05-29T12:26:03.890Z,1001.88
2017-05-29T12:27:04.529Z,1001.91
2017-05-29T12:28:05.159Z,1001.90
2017-05-29T12:29:05.836Z,1001.85
2017-05-29T12:30:06.473Z,1001.84
2017-05-29T12:31:07.094Z,1001.88
2017-05-29T12:32:07.731Z,1001.84
2017-05-29T12:33:08.362Z,1001.86
2017-05-29T12:34:09.052Z,1001.87
2017-05-29T12:35:09.678Z,1001.86
2017-05-29T12:36:10.304Z,1001.82
2017-05-29T12:37:10.937Z,1001.85
2017-05-29T12:38:11.560Z,1001.83
2017-05-29T12:39:12.202Z,1001.86
2017-05-29T12:40:12.836Z,1001.86
2017-05-29T12:41:13.472Z,1001.85
2017-05-29T12:42:14.099Z,1001.85
2017-05-29T12:43:14.794Z,1001.83
2017-05-29T12:44:15.419Z,1001.81
2017-05-29T12:45:16.045Z,1001.81
2017-05-29T12:46:16.681Z,1001.78
2017-05-29T12:47:17.325Z,1001.81
2017-05-29T12:48:18.007Z,1001.78
2017-05-29T12:49:18.635Z,1001.77
2017-05-29T12:50:19.275Z,1001.78
2017-05-29T12:51:19.922Z,1001.80
2017-05-29T12:52:20.546Z,1001.77
2017-05-29T12:53:21.231Z,1001.78
2017-05-29T12:54:21.878Z,1001.77
2017-05-29T12:55:22.518Z,1001.79
2017-05-29T12:56:23.159Z,1001.76
2017-05-29T12:57:23.789Z,1001.81
2017-05-29T12:58:24.431Z,1001.79
2017-05-29T12:59:25.062Z,1001.83
2017-05-29T13:00:25.700Z,1001.84
2017-05-29T13:01:26.337Z,1001.79
2017-05-29T13:02:26.977Z,1001.81
2017-05-29T13:03:27.624Z,1001.81
2017-05-29T13:04:28.264Z,1001.82
2017-05-29T13:05:28.909Z,1001.82
2017-05-29T13:06:29.550Z,1001.81
2017-05-29T13:07:30.243Z,1001.80
2017-05-29T13:08:30.869Z,1001.78
2017-05-29T13:09:31.507Z,1001.79
2017-05-29T13:10:32.133Z,1001.78
2017-05-29T13:11:32.770Z,1001.76
2017-05-29T13:12:33.412Z,1001.76
2017-05-29T13:13:34.041Z,1001.72
2017-05-29T13:14:34.683Z,1001.73
2017-05-29T13:15:35.329Z,1001.73
2017-05-29T13:16:35.953Z,1001.75
2017-05-29T13:17:36.590Z,1001.75
2017-05-29T13:18:37.226Z,1001.72
2017-05-29T13:19:37.865Z,1001.75
2017-05-29T13:20:38.505Z,1001.71
2017-05-29T13:21:39.129Z,1001.70
2017-05-29T13:22:39.761Z,1001.71
2017-05-29T13:23:40.435Z,1001.70
2017-05-29T13:24:41.070Z,1001.68
2017-05-29T13:25:41.709Z,1001.72
2017-05-29T13:26:42.335Z,1001.74
2017-05-29T13:27:42.977Z,1001.67
2017-05-29T13:28:43.609Z,1001.70
2017-05-29T13:29:44.252Z,1001.75
2017-05-29T13:30:44.878Z,1001.70
2017-05-29T13:31:45.503Z,1001.72
2017-05-29T13:32:46.133Z,1001.69
2017-05-29T13:33:46.773Z,1001.69
2017-05-29T13:34:47.610Z,1001.67
2017-05-29T13:35:48.234Z,1001.68
2017-05-29T13:36:48.862Z,1001.65
2017-05-29T13:37:49.487Z,1001.62
2017-05-29T13:38:50.123Z,1001.62
2017-05-29T13:39:50.745Z,1001.63
2017-05-29T13:40:51.383Z,1001.67
2017-05-29T13:41:52.019Z,1001.65
2017-05-29T13:42:52.642Z,1001.67
2017-05-29T13:43:53.266Z,1001.68
2017-05-29T13:44:53.891Z,1001.69
2017-05-29T13:45:54.530Z,1001.60
2017-05-29T13:46:55.167Z,1001.65
2017-05-29T13:47:55.802Z,1001.65
2017-05-29T13:48:56.447Z,1001.65
2017-05-29T13:49:57.094Z,1001.69
2017-05-29T13:50:57.710Z,1001.71
2017-05-29T13:51:58.343Z,1001.70
2017-05-29T13:52:58.975Z,1001.69
2017-05-29T13:53:59.600Z,1001.67
2017-05-29T13:55:00.226Z,1001.66
2017-05-29T13:56:00.852Z,1001.65
2017-05-29T13:57:01.485Z,1001.68
2017-05-29T13:58:02.118Z,1001.67
2017-05-29T13:59:02.755Z,1001.66
2017-05-29T14:00:03.382Z,1001.61
2017-05-29T14:01:04.011Z,1001.59
2017-05-29T14:02:04.646Z,1001.59
2017-05-29T14:03:05.321Z,1001.61
2017-05-29T14:04:05.957Z,1001.59
2017-05-29T14:05:06.587Z,1001.57
2017-05-29T14:06:07.222Z,1001.59
2017-05-29T14:07:07.859Z,1001.56
2017-05-29T14:08:08.497Z,1001.54
2017-05-29T14:09:09.124Z,1001.53
2017-05-29T14:10:09.754Z,1001.51
2017-05-29T14:11:10.390Z,1001.48
2017-05-29T14:12:11.025Z,1001.49
2017-05-29T14:13:11.661Z,1001.46
2017-05-29T14:14:12.288Z,1001.49
2017-05-29T14:15:12.924Z,1001.49
2017-05-29T14:16:13.564Z,1001.50
2017-05-29T14:17:14.204Z,1001.48
2017-05-29T14:18:14.845Z,1001.43
2017-05-29T14:19:15.471Z,1001.43
2017-05-29T14:20:16.097Z,1001.44
2017-05-29T14:21:16.726Z,1001.46
2017-05-29T14:22:17.350Z,1001.44
2017-05-29T14:23:17.976Z,1001.42
2017-05-29T14:24:18.597Z,1001.45
2017-05-29T14:25:19.262Z,1001.42
2017-05-29T14:26:19.893Z,1001.36
2017-05-29T14:27:20.530Z,1001.35
2017-05-29T14:28:21.152Z,1001.37
2017-05-29T14:29:21.779Z,1001.36
2017-05-29T14:30:22.420Z,1001.34
2017-05-29T14:31:23.058Z,1001.32
2017-05-29T14:32:23.698Z,1001.39
2017-05-29T14:33:24.335Z,1001.40
2017-05-29T14:34:24.955Z,1001.39
2017-05-29T14:35:25.585Z,1001.35
2017-05-29T14:36:26.225Z,1001.43
2017-05-29T14:37:26.846Z,1001.37
2017-05-29T14:38:27.471Z,1001.45
2017-05-29T14:39:28.110Z,1001.43
2017-05-29T14:40:28.743Z,1001.43
2017-05-29T14:41:29.380Z,1001.45
2017-05-29T14:42:30.016Z,1001.44
2017-05-29T14:43:30.639Z,1001.47
2017-05-29T14:44:31.275Z,1001.42
2017-05-29T14:45:31.909Z,1001.43
2017-05-29T14:46:32.545Z,1001.46
2017-05-29T14:47:33.179Z,1001.49
2017-05-29T14:48:33.817Z,1001.49
2017-05-29T14:49:34.458Z,1001.47
2017-05-29T14:50:35.093Z,1001.46
2017-05-29T14:51:35.713Z,1001.47
2017-05-29T14:52:36.338Z,1001.42
2017-05-29T14:53:36.960Z,1001.37
2017-05-29T14:54:37.597Z,1001.44
2017-05-29T14:55:38.286Z,1001.47
2017-05-29T14:56:38.921Z,1001.45
2017-05-29T14:57:39.554Z,1001.44
2017-05-29T14:58:40.176Z,1001.41
2017-05-29T14:59:40.812Z,1001.46
2017-05-29T15:00:41.448Z,1001.46
2017-05-29T15:01:42.087Z,1001.37
2017-05-29T15:02:42.784Z,1001.41
2017-05-29T15:03:43.348Z,1001.44
2017-05-29T15:04:43.968Z,1001.45
2017-05-29T15:05:44.594Z,1001.38
2017-05-29T15:06:45.229Z,1001.43
2017-05-29T15:07:45.862Z,1001.48
2017-05-29T15:08:46.504Z,1001.43
2017-05-29T15:09:47.123Z,1001.43
2017-05-29T15:10:47.757Z,1001.41
2017-05-29T15:11:48.399Z,1001.37
2017-05-29T15:12:49.032Z,1001.39
2017-05-29T15:13:49.657Z,1001.34
2017-05-29T15:14:50.345Z,1001.31
2017-05-29T15:15:50.984Z,1001.35
2017-05-29T15:16:51.601Z,1001.36
2017-05-29T15:17:52.229Z,1001.38
2017-05-29T15:18:52.864Z,1001.32
2017-05-29T15:19:53.500Z,1001.33
2017-05-29T15:20:54.132Z,1001.23
2017-05-29T15:21:54.755Z,1001.24
2017-05-29T15:22:55.392Z,1001.28
2017-05-29T15:23:56.031Z,1001.31
2017-05-29T15:24:56.669Z,1001.25
2017-05-29T15:25:57.292Z,1001.22
2017-05-29T15:26:57.927Z,1001.25
2017-05-29T15:27:58.561Z,1001.23
2017-05-29T15:28:59.201Z,1001.19
2017-05-29T15:29:59.818Z,1001.24
2017-05-29T15:31:00.445Z,1001.20
2017-05-29T15:32:01.082Z,1001.19
2017-05-29T15:33:01.716Z,1001.23
2017-05-29T15:34:02.349Z,1001.17
2017-05-29T15:35:02.970Z,1001.14
2017-05-29T15:36:03.604Z,1001.10
2017-05-29T15:37:04.231Z,1001.11
2017-05-29T15:38:04.851Z,1001.12
2017-05-29T15:39:05.487Z,1001.10
2017-05-29T15:40:06.111Z,1001.15
2017-05-29T15:41:06.754Z,1001.08
2017-05-29T15:42:07.374Z,1001.05
2017-05-29T15:43:07.995Z,1001.09
2017-05-29T15:44:08.625Z,1001.05
2017-05-29T15:45:09.258Z,1001.05
2017-05-29T15:46:09.886Z,1001.06
2017-05-29T15:47:10.508Z,1001.08
2017-05-29T15:48:11.135Z,1001.05
2017-05-29T15:49:11.759Z,1001.04
2017-05-29T15:50:12.386Z,1001.02
2017-05-29T15:51:13.014Z,1001.03
2017-05-29T15:52:13.653Z,1001.03
2017-05-29T15:53:14.282Z,1001.08
2017-05-29T15:54:14.913Z,1001.10
2017-05-29T15:55:15.545Z,1001.07
2017-05-29T15:56:16.184Z,1001.08
2017-05-29T15:57:16.822Z,1001.07
2017-05-29T15:58:17.497Z,1001.05
2017-05-29T15:59:18.131Z,1001.02
2017-05-29T16:00:18.752Z,1001.03
2017-05-29T16:01:19.375Z,1000.99
2017-05-29T16:02:20.008Z,1000.99
2017-05-29T16:03:20.637Z,1000.98
2017-05-29T16:04:21.264Z,1001.00
2017-05-29T16:05:21.897Z,1001.02
2017-05-29T16:06:22.533Z,1001.02
2017-05-29T16:07:23.167Z,1001.01
2017-05-29T16:08:23.788Z,1000.97
2017-05-29T16:09:24.414Z,1001.06
2017-05-29T16:10:25.033Z,1001.05
2017-05-29T16:11:25.664Z,1001.05
2017-05-29T16:12:26.284Z,1001.06
2017-05-29T16:13:26.918Z,1001.04
2017-05-29T16:14:27.551Z,1001.05
2017-05-29T16:15:28.171Z,1001.05
2017-05-29T16:16:28.789Z,1001.04
2017-05-29T16:17:29.408Z,1001.01
2017-05-29T16:18:30.040Z,1001.04
2017-05-29T16:19:30.665Z,1001.09
2017-05-29T16:20:31.281Z,1001.12
2017-05-29T16:21:31.912Z,1001.20
2017-05-29T16:22:32.529Z,1001.22
2017-05-29T16:23:33.162Z,1001.24
2017-05-29T16:24:33.789Z,1001.26
2017-05-29T16:25:34.416Z,1001.26
2017-05-29T16:26:35.047Z,1001.26
2017-05-29T16:27:35.676Z,1001.28
2017-05-29T16:28:36.299Z,1001.28
2017-05-29T16:29:36.930Z,1001.28
2017-05-29T16:30:37.546Z,1001.23
2017-05-29T16:31:38.167Z,1001.23
2017-05-29T16:32:38.785Z,1001.21
2017-05-29T16:33:39.419Z,1001.19
2017-05-29T16:34:40.046Z,1001.20
2017-05-29T16:35:40.663Z,1001.16
2017-05-29T16:36:41.326Z,1001.18
2017-05-29T16:37:41.954Z,1001.18
2017-05-29T16:38:42.570Z,1001.17
2017-05-29T16:39:43.188Z,1001.20
2017-05-29T16:40:43.818Z,1001.22
2017-05-29T16:41:44.441Z,1001.21
2017-05-29T16:42:45.058Z,1001.23
2017-05-29T16:43:45.676Z,1001.28
2017-05-29T16:44:46.308Z,1001.33
2017-05-29T16:45:46.925Z,1001.37
2017-05-29T16:46:47.539Z,1001.37
2017-05-29T16:47:48.155Z,1001.43
2017-05-29T16:48:48.776Z,1001.41
2017-05-29T16:49:49.405Z,1001.35
2017-05-29T16:50:50.021Z,1001.30
2017-05-29T16:51:50.639Z,1001.26
2017-05-29T16:52:51.269Z,1001.25
2017-05-29T16:53:51.904Z,1001.24
2017-05-29T16:54:52.540Z,1001.22
2017-05-29T16:55:53.165Z,1001.22
2017-05-29T16:56:53.780Z,1001.30
2017-05-29T16:57:54.394Z,1001.34
2017-05-29T16:58:55.009Z,1001.39
2017-05-29T16:59:55.634Z,1001.39
2017-05-29T17:00:56.262Z,1001.42
2017-05-29T17:01:56.886Z,1001.46
2017-05-29T17:02:57.501Z,1001.44
2017-05-29T17:03:58.131Z,1001.44
2017-05-29T17:04:58.759Z,1001.44
2017-05-29T17:05:59.373Z,1001.43
2017-05-29T17:06:59.998Z,1001.41
2017-05-29T17:08:00.608Z,1001.46
2017-05-29T17:09:01.228Z,1001.42
2017-05-29T17:10:01.857Z,1001.39
2017-05-29T17:11:02.490Z,1001.38
2017-05-29T17:12:03.115Z,1001.38
2017-05-29T17:13:03.745Z,1001.38
2017-05-29T17:14:04.356Z,1001.41
2017-05-29T17:15:04.982Z,1001.43
2017-05-29T17:16:05.611Z,1001.47
2017-05-29T17:17:06.240Z,1001.50
2017-05-29T17:18:06.863Z,1001.55
2017-05-29T17:19:07.492Z,1001.54
2017-05-29T17:20:08.121Z,1001.57
2017-05-29T17:21:08.743Z,1001.70
2017-05-29T17:22:09.372Z,1001.73
2017-05-29T17:23:09.984Z,1001.76
2017-05-29T17:24:10.600Z,1001.70
2017-05-29T17:25:11.229Z,1001.71
2017-05-29T17:26:11.857Z,1001.69
2017-05-29T17:27:12.479Z,1001.74
2017-05-29T17:28:13.095Z,1001.71
2017-05-29T17:29:13.714Z,1001.66
2017-05-29T17:30:14.332Z,1001.61
2017-05-29T17:31:14.960Z,1001.59
2017-05-29T17:32:15.582Z,1001.58
2017-05-29T17:33:16.200Z,1001.58
2017-05-29T17:34:16.826Z,1001.64
2017-05-29T17:35:17.450Z,1001.68
2017-05-29T17:36:18.078Z,1001.75
2017-05-29T17:37:18.696Z,1001.78
2017-05-29T17:38:19.329Z,1001.86
2017-05-29T17:39:19.955Z,1001.91
2017-05-29T17:40:20.566Z,1001.96
2017-05-29T17:41:21.194Z,1001.94
2017-05-29T17:42:21.824Z,1001.93
2017-05-29T17:43:22.447Z,1001.95
2017-05-29T17:44:23.065Z,1001.94
2017-05-29T17:45:23.693Z,1001.96
2017-05-29T17:46:24.306Z,1001.95
2017-05-29T17:47:24.966Z,1001.98
2017-05-29T17:48:25.594Z,1002.02
2017-05-29T17:49:26.204Z,1002.04
2017-05-29T17:50:26.824Z,1002.13
2017-05-29T17:51:27.451Z,1002.23
2017-05-29T17:52:28.070Z,1002.29
2017-05-29T17:53:28.692Z,1002.37
2017-05-29T17:54:29.304Z,1002.40
2017-05-29T17:55:29.925Z,1002.47
2017-05-29T17:56:30.543Z,1002.51
2017-05-29T17:57:31.165Z,1002.46
2017-05-29T17:58:31.790Z,1002.46
2017-05-29T17:59:32.416Z,1002.51
2017-05-29T18:00:33.034Z,1002.45
2017-05-29T18:01:33.661Z,1002.42
2017-05-29T18:02:34.286Z,1002.42
2017-05-29T18:03:34.910Z,1002.38
2017-05-29T18:04:35.542Z,1002.33
2017-05-29T18:05:36.167Z,1002.27
2017-05-29T18:06:36.792Z,1002.25
2017-05-29T18:07:37.414Z,1002.21
2017-05-29T18:08:38.022Z,1002.14
2017-05-29T18:09:38.637Z,1002.13
2017-05-29T18:10:39.266Z,1002.14
2017-05-29T18:11:39.882Z,1002.15
2017-05-29T18:12:40.504Z,1002.18
2017-05-29T18:13:41.113Z,1002.18
2017-05-29T18:14:41.739Z,1002.20
2017-05-29T18:15:42.350Z,1002.16
2017-05-29T18:16:42.971Z,1002.18
2017-05-29T18:17:43.592Z,1002.25
2017-05-29T18:18:44.217Z,1002.35
2017-05-29T18:19:44.843Z,1002.38
2017-05-29T18:20:45.470Z,1002.34
2017-05-29T18:21:46.092Z,1002.31
2017-05-29T18:22:46.714Z,1002.32
2017-05-29T18:23:47.328Z,1002.31
2017-05-29T18:24:47.952Z,1002.31
2017-05-29T18:25:48.573Z,1002.24
2017-05-29T18:26:49.197Z,1002.18
2017-05-29T18:27:49.806Z,1002.15
2017-05-29T18:28:50.429Z,1002.11
2017-05-29T18:29:51.048Z,1002.08
2017-05-29T18:30:51.669Z,1002.08
2017-05-29T18:31:52.354Z,1002.04
2017-05-29T18:32:52.989Z,1002.02
2017-05-29T18:33:53.762Z,1002.02
2017-05-29T18:34:54.377Z,1002.04
2017-05-29T18:35:55.001Z,1002.00
2017-05-29T18:36:55.610Z,1002.01
2017-05-29T18:37:56.235Z,1001.98
2017-05-29T18:38:56.859Z,1001.97
2017-05-29T18:39:57.470Z,1001.92
2017-05-29T18:40:58.091Z,1001.88
2017-05-29T18:41:58.715Z,1001.87
2017-05-29T18:42:59.339Z,1001.84
2017-05-29T18:43:59.962Z,1001.85
2017-05-29T18:45:00.589Z,1001.84
2017-05-29T18:46:01.215Z,1001.80
2017-05-29T18:47:01.839Z,1001.81
2017-05-29T18:48:02.462Z,1001.80
2017-05-29T18:49:03.090Z,1001.75
2017-05-29T18:50:03.704Z,1001.71
2017-05-29T18:51:04.325Z,1001.68
2017-05-29T18:52:04.953Z,1001.66
2017-05-29T18:53:05.563Z,1001.64
2017-05-29T18:54:06.191Z,1001.59
2017-05-29T18:55:06.818Z,1001.61
2017-05-29T18:56:07.426Z,1001.62
2017-05-29T18:57:08.061Z,1001.67
2017-05-29T18:58:08.734Z,1001.75
2017-05-29T18:59:09.362Z,1001.81
2017-05-29T19:00:09.989Z,1001.84
2017-05-29T19:01:10.603Z,1001.89
2017-05-29T19:02:11.235Z,1001.92
2017-05-29T19:03:11.863Z,1001.98
2017-05-29T19:04:12.482Z,1001.98
2017-05-29T19:05:13.106Z,1002.02
2017-05-29T19:06:13.715Z,1002.05
2017-05-29T19:07:14.335Z,1002.02
2017-05-29T19:08:14.961Z,1002.06
2017-05-29T19:09:15.586Z,1002.04
2017-05-29T19:10:16.209Z,1002.02
2017-05-29T19:11:16.832Z,1002.03
2017-05-29T19:12:17.451Z,1001.98
2017-05-29T19:13:18.072Z,1001.97
2017-05-29T19:14:18.689Z,1001.95
2017-05-29T19:15:19.314Z,1001.98
2017-05-29T19:16:19.926Z,1001.96
2017-05-29T19:17:20.553Z,1001.98
2017-05-29T19:18:21.159Z,1002.00
2017-05-29T19:19:21.778Z,1001.99
2017-05-29T19:20:22.400Z,1002.05
2017-05-29T19:21:23.024Z,1002.02
2017-05-29T19:22:23.641Z,1002.03
2017-05-29T19:23:24.264Z,1002.05
2017-05-29T19:24:24.873Z,1002.08
2017-05-29T19:25:25.495Z,1002.08
2017-05-29T19:26:26.108Z,1002.07
2017-05-29T19:27:26.718Z,1002.13
2017-05-29T19:28:27.329Z,1002.13
2017-05-29T19:29:27.951Z,1002.16
2017-05-29T19:30:28.559Z,1002.14
2017-05-29T19:31:29.171Z,1002.12
2017-05-29T19:32:29.794Z,1002.13
2017-05-29T19:33:30.413Z,1002.20
2017-05-29T19:34:31.043Z,1002.16
2017-05-29T19:35:31.656Z,1002.19
2017-05-29T19:36:32.273Z,1002.19
2017-05-29T19:37:32.919Z,1002.17
2017-05-29T19:38:33.575Z,1002.20
2017-05-29T19:39:34.179Z,1002.17
2017-05-29T19:40:34.788Z,1002.19
2017-05-29T19:41:35.413Z,1002.18
2017-05-29T19:42:36.023Z,1002.17
2017-05-29T19:43:36.646Z,1002.15
2017-05-29T19:44:37.357Z,1002.16
2017-05-29T19:45:37.979Z,1002.15
2017-05-29T19:46:38.599Z,1002.15
2017-05-29T19:47:39.208Z,1002.18
2017-05-29T19:48:39.827Z,1002.15
2017-05-29T19:49:40.441Z,1002.15
2017-05-29T19:50:41.063Z,1002.16
2017-05-29T19:51:41.684Z,1002.15
2017-05-29T19:52:42.304Z,1002.15
2017-05-29T19:53:42.912Z,1002.18
2017-05-29T19:54:43.536Z,1002.21
2017-05-29T19:55:44.160Z,1002.21
2017-05-29T19:56:44.774Z,1002.21
2017-05-29T19:57:45.384Z,1002.21
2017-05-29T19:58:46.206Z,1002.23
2017-05-29T19:59:46.815Z,1002.25
2017-05-29T20:00:47.436Z,1002.27
2017-05-29T20:01:48.107Z,1002.29
2017-05-29T20:02:48.725Z,1002.28
2017-05-29T20:03:49.332Z,1002.29
2017-05-29T20:04:49.950Z,1002.26
2017-05-29T20:05:50.566Z,1002.31
2017-05-29T20:06:51.181Z,1002.32
2017-05-29T20:07:51.801Z,1002.31
2017-05-29T20:08:52.427Z,1002.32
2017-05-29T20:09:53.042Z,1002.33
2017-05-29T20:10:53.663Z,1002.37
2017-05-29T20:11:54.269Z,1002.39
2017-05-29T20:12:54.881Z,1002.43
2017-05-29T20:13:55.489Z,1002.45
2017-05-29T20:14:56.093Z,1002.48
2017-05-29T20:15:56.708Z,1002.49
2017-05-29T20:16:57.325Z,1002.52
2017-05-29T20:17:57.950Z,1002.55
2017-05-29T20:18:58.555Z,1002.55
2017-05-29T20:19:59.188Z,1002.54
2017-05-29T20:20:59.802Z,1002.54
2017-05-29T20:22:00.417Z,1002.55
2017-05-29T20:23:01.033Z,1002.53
2017-05-29T20:24:01.635Z,1002.52
2017-05-29T20:25:02.242Z,1002.50
2017-05-29T20:26:02.868Z,1002.54
2017-05-29T20:27:03.489Z,1002.57
2017-05-29T20:28:04.108Z,1002.58
2017-05-29T20:29:04.718Z,1002.58
2017-05-29T20:30:05.323Z,1002.63
2017-05-29T20:31:05.937Z,1002.63
2017-05-29T20:32:06.542Z,1002.68
2017-05-29T20:33:07.147Z,1002.71
2017-05-29T20:34:07.797Z,1002.72
2017-05-29T20:35:08.466Z,1002.78
2017-05-29T20:36:09.029Z,1002.78
2017-05-29T20:37:09.656Z,1002.84
2017-05-29T20:38:10.589Z,1002.87
2017-05-29T20:39:11.226Z,1002.91